METAR stanice u blizini

 

LYBE - Beograd / Surčin, Srbija
Ažurirano: 24/05/2022 02:00
Vedro
Vedro
 Pravac vetra I
Vetar: I 11 km/h
Temperatura: 18°C
Tačka rose: 7°C
Vlažnost: 49%
Pritisak: 1009 hPa
Pregled: Vedro
Vidljivost: greater than 10 km
2022/05/24 00:00 LYBE 240000Z 09006KT CAVOK 18/07 Q1009 NOSIG
LYBT - Beograd / Batajnica, Srbija
Ažurirano: 24/05/2022 02:00
Vedro
Vedro
 Pravac vetra ISI
Vetar: ISI 11 km/h
Temperatura: 17°C
Tačka rose: 7°C
Vlažnost: 52%
Pritisak: 1009 hPa
Pregled: Vedro
Vidljivost: greater than 10 km
2022/05/24 00:00 LYBT 240000Z 07006KT 020V100 CAVOK 17/07 Q1009 NOSIG
LYVR - Vršac, Srbija
Ažurirano: 24/05/2022 02:00
Vedro
Vedro
 Pravac vetra Z
Vetar: Z 11 km/h
Temperatura: 12°C
Tačka rose: 8°C
Vlažnost: 77%
Pritisak: 1010 hPa
Pregled: Vedro
Vidljivost: greater than 10 km
2022/05/24 00:00 LYVR 240000Z AUTO 27006KT CAVOK 12/08 Q1010
 
LYKV - Lađevci, Srbija
Ažurirano: 24/05/2022 02:00
Vedro
Vedro
 Pravac vetra varies
Vetar: varies 2 km/h
Temperatura: 14°C
Tačka rose: 13°C
Vlažnost: 94%
Pritisak: 1010 hPa
Pregled: Vedro
Vidljivost: greater than 10 km
2022/05/24 00:00 LYKV 240000Z VRB01KT CAVOK 14/13 Q1010 NOSIG
LYNI - Niš, Srbija
Ažurirano: 24/05/2022 02:00
Vedro
Vedro
 Pravac vetra varies
Vetar: varies 2 km/h
Temperatura: 17°C
Tačka rose: 12°C
Vlažnost: 73%
Pritisak: 1010 hPa
Pregled: Vedro
Vidljivost: greater than 10 km
2022/05/24 00:00 LYNI 240000Z VRB01KT CAVOK 17/12 Q1010 NOSIG
BKPR - Priština, Srbija
Ažurirano: 24/05/2022 02:30
Vedro
Vedro
 Pravac vetra calm
Vetar: Tišina
Temperatura: 15°C
Tačka rose: 13°C
Vlažnost: 88%
Pritisak: 1012 hPa
Pregled: Vedro
Vidljivost: greater than 10 km
2022/05/24 00:30 BKPR 240030Z 00000KT CAVOK 15/13 Q1012 NOSIG
 
LHPP - Pecs / Pogany, Hungary
Ažurirano: 24/05/2022 01:45
Oblačno
Oblačno
 Pravac vetra IJI
Vetar: IJI 11 km/h
Temperatura: 18°C
Tačka rose: 10°C
Vlažnost: 60%
Pritisak: 1009 hPa
Oblaci: Oblačno
Vidljivost: 10 km
Cloud details: Oblačno 1433 m
2022/05/23 23:45 LHPP 232345Z AUTO 11006KT 080V140 9999 OVC047 18/10 Q1009
LHUD - Szeged, Hungary
Ažurirano: 04/07/2019 01:45
NOT Current
Vedro
Vedro
 Pravac vetra S
Vetar: S 7 km/h
Temperatura: 18°C
Tačka rose: 13°C
Vlažnost: 73%
Pritisak: 1019 hPa
Pregled: Vedro
Vidljivost: greater than 10 km
2019/07/03 23:45 LHUD 032345Z 35004KT CAVOK 18/13 Q1019
LRTR - Timisoara, Romania
Ažurirano: 24/05/2022 02:00
Vedro
Vedro
 Pravac vetra I
Vetar: I 15 km/h
Temperatura: 9°C
Osećaj hladnoće: 7°C
Tačka rose: 7°C
Vlažnost: 87%
Pritisak: 1010 hPa
Pregled: Vedro
Vidljivost: greater than 10 km
2022/05/24 00:00 LRTR 240000Z 08008KT CAVOK 09/07 Q1010
 
LRCV - Craiova, Romania
Ažurirano: 24/05/2022 02:00
Vedro
Vedro
 Pravac vetra ISI
Vetar: ISI 19 km/h
Temperatura: 13°C
Tačka rose: 8°C
Vlažnost: 72%
Pritisak: 1010 hPa
Pregled: Vedro
Vidljivost: greater than 10 km
2022/05/24 00:00 LRCV 240000Z 07010KT CAVOK 13/08 Q1010
LBSF - Sofia, Bulgaria
Ažurirano: 24/05/2022 02:00
Mostly Cloudy
Mostly Cloudy
 Pravac vetra JI
Vetar: JI 7 km/h
Temperatura: 14°C
Tačka rose: 9°C
Vlažnost: 72%
Pritisak: 1012 hPa
Oblaci: Mostly Cloudy
Vidljivost: 10 km
Cloud details: Mostly Cloudy 1737 m
2022/05/24 00:00 LBSF 240000Z AUTO 13004KT 9999 BKN057/// 14/09 Q1012 NOSIG
LWSK - Skoplje, Makedonija
Ažurirano: 24/05/2022 02:30
Vedro
Vedro
 Pravac vetra SI
Vetar: SI 7 km/h
Temperatura: 16°C
Tačka rose: 14°C
Vlažnost: 88%
Pritisak: 1011 hPa
Pregled: Vedro
Vidljivost: greater than 10 km
2022/05/24 00:30 LWSK 240030Z 04004KT CAVOK 16/14 Q1011 NOSIG
 
LYPG - Podgorica, Crna Gora
Ažurirano: 24/05/2022 02:00
Vedro
Vedro
 Pravac vetra SSZ
Vetar: SSZ 6 km/h
Temperatura: 19°C
Tačka rose: 14°C
Vlažnost: 73%
Pritisak: 1011 hPa
Pregled: Vedro
Vidljivost: greater than 10 km
2022/05/24 00:00 LYPG 240000Z 33003KT 300V360 CAVOK 19/14 Q1011 NOSIG
LQSA - Sarajevo, Bosna i Hercegovina
Ažurirano: 24/05/2022 02:00
Few Clouds
Few Clouds
 Pravac vetra varies
Vetar: varies 2 km/h
Temperatura: 14°C
Tačka rose: 14°C
Vlažnost: 100%
Pritisak: 1011 hPa
Oblaci: Few Clouds
Vidljivost: 7 km
Cloud details: Few Clouds 152 m
2022/05/24 00:00 LQSA 240000Z VRB01KT 7000 FEW005 14/14 Q1011
LDOS - Osijek, Hrvatksa
Ažurirano: 24/05/2022 02:00
Vedro
Vedro
 Pravac vetra I
Vetar: I 13 km/h
Temperatura: 14°C
Tačka rose: 10°C
Vlažnost: 77%
Pritisak: 1008 hPa
Pregled: Vedro
Vidljivost: greater than 10 km
2022/05/24 00:00 LDOS 240000Z 09007KT CAVOK 14/10 Q1008